地図

経路データ

SID SEASON NUMBER BASIN SUBBASIN NAME ISO_TIME NATURE LAT LON WMO_WIND WMO_PRES WMO_AGENCY TRACK_TYPE DIST2LAND LANDFALL IFLAG USA_AGENCY USA_ATCF_ID USA_LAT USA_LON USA_RECORD USA_STATUS USA_WIND USA_PRES USA_SSHS USA_R34_NE USA_R34_SE USA_R34_SW USA_R34_NW USA_R50_NE USA_R50_SE USA_R50_SW USA_R50_NW USA_R64_NE USA_R64_SE USA_R64_SW USA_R64_NW USA_POCI USA_ROCI USA_RMW USA_EYE TOKYO_LAT TOKYO_LON TOKYO_GRADE TOKYO_WIND TOKYO_PRES TOKYO_R50_DIR TOKYO_R50_LONG TOKYO_R50_SHORT TOKYO_R30_DIR TOKYO_R30_LONG TOKYO_R30_SHORT TOKYO_LAND CMA_LAT CMA_LON CMA_CAT CMA_WIND CMA_PRES HKO_LAT HKO_LON HKO_CAT HKO_WIND HKO_PRES NEWDELHI_LAT NEWDELHI_LON NEWDELHI_GRADE NEWDELHI_WIND NEWDELHI_PRES NEWDELHI_CI NEWDELHI_DP NEWDELHI_POCI REUNION_LAT REUNION_LON REUNION_TYPE REUNION_WIND REUNION_PRES REUNION_TNUM REUNION_CI REUNION_RMW REUNION_R34_NE REUNION_R34_SE REUNION_R34_SW REUNION_R34_NW REUNION_R50_NE REUNION_R50_SE REUNION_R50_SW REUNION_R50_NW REUNION_R64_NE REUNION_R64_SE REUNION_R64_SW REUNION_R64_NW BOM_LAT BOM_LON BOM_TYPE BOM_WIND BOM_PRES BOM_TNUM BOM_CI BOM_RMW BOM_R34_NE BOM_R34_SE BOM_R34_SW BOM_R34_NW BOM_R50_NE BOM_R50_SE BOM_R50_SW BOM_R50_NW BOM_R64_NE BOM_R64_SE BOM_R64_SW BOM_R64_NW BOM_ROCI BOM_POCI BOM_EYE BOM_POS_METHOD BOM_PRES_METHOD NADI_LAT NADI_LON NADI_CAT NADI_WIND NADI_PRES WELLINGTON_LAT WELLINGTON_LON WELLINGTON_WIND WELLINGTON_PRES DS824_LAT DS824_LON DS824_STAGE DS824_WIND DS824_PRES TD9636_LAT TD9636_LON TD9636_STAGE TD9636_WIND TD9636_PRES TD9635_LAT TD9635_LON TD9635_WIND TD9635_PRES TD9635_ROCI NEUMANN_LAT NEUMANN_LON NEUMANN_CLASS NEUMANN_WIND NEUMANN_PRES MLC_LAT MLC_LON MLC_CLASS MLC_WIND MLC_PRES USA_GUST BOM_GUST BOM_GUST_PER REUNION_GUST REUNION_GUST_PER USA_SEAHGT USA_SEARAD_NE USA_SEARAD_SE USA_SEARAD_SW USA_SEARAD_NW STORM_SPEED STORM_DIR
1982241N14338 1982 63 NA NA BERYL 1982-08-28 12:00:00 TS 13.7000 -22.2000 30 1008 hurdat_atl main 519 519 O_____________ hurdat_atl AL031982 13.7000 -22.2000 TD 30 1008 -1 5 296
1982241N14338 1982 63 NA NA BERYL 1982-08-28 15:00:00 TS 13.8050 -22.4199 main 537 537 P_____________ AL031982 13.8050 -22.4199 TD 32 1007 -1 5 292
1982241N14338 1982 63 NA NA BERYL 1982-08-28 18:00:00 TS 13.9000 -22.7000 35 1006 hurdat_atl main 567 567 O_____________ hurdat_atl AL031982 13.9000 -22.7000 TS 35 1006 0 7 285
1982241N14338 1982 63 NA NA BERYL 1982-08-28 21:00:00 TS 13.9849 -23.0902 main 608 608 P_____________ AL031982 13.9849 -23.0902 TS 35 1005 0 9 283
1982241N14338 1982 63 NA NA BERYL 1982-08-29 00:00:00 TS 14.1000 -23.6000 35 1005 hurdat_atl main 660 660 O_____________ hurdat_atl AL031982 14.1000 -23.6000 TS 35 1005 0 11 285
1982241N14338 1982 63 NA NA BERYL 1982-08-29 03:00:00 TS 14.2850 -24.2125 main 722 722 P_____________ AL031982 14.2850 -24.2125 TS 37 1004 0 13 288
1982241N14338 1982 63 NA NA BERYL 1982-08-29 06:00:00 TS 14.5000 -24.9000 40 1003 hurdat_atl main 796 796 O_____________ hurdat_atl AL031982 14.5000 -24.9000 TS 40 1003 0 14 287
1982241N14338 1982 63 NA NA BERYL 1982-08-29 09:00:00 TS 14.6999 -25.5926 main 871 871 P_____________ AL031982 14.6999 -25.5926 TS 42 1002 0 14 286
1982241N14338 1982 63 NA NA BERYL 1982-08-29 12:00:00 TS 14.9000 -26.3000 45 1002 hurdat_atl main 946 946 O_____________ hurdat_atl AL031982 14.9000 -26.3000 TS 45 1002 0 14 286
1982241N14338 1982 63 NA NA BERYL 1982-08-29 15:00:00 TS 15.0998 -27.0001 main 1022 1022 P_____________ AL031982 15.0998 -27.0001 TS 45 1001 0 14 286
1982241N14338 1982 63 NA NA BERYL 1982-08-29 18:00:00 TS 15.3000 -27.7000 45 1000 hurdat_atl main 1097 1097 O_____________ hurdat_atl AL031982 15.3000 -27.7000 TS 45 1000 0 14 287
1982241N14338 1982 63 NA NA BERYL 1982-08-29 21:00:00 TS 15.5072 -28.3926 main 1173 1173 P_____________ AL031982 15.5072 -28.3926 TS 47 999 0 14 287
1982241N14338 1982 63 NA NA BERYL 1982-08-30 00:00:00 TS 15.7000 -29.1000 50 999 hurdat_atl main 1250 1250 O_____________ hurdat_atl AL031982 15.7000 -29.1000 TS 50 999 0 14 284
1982241N14338 1982 63 NA NA BERYL 1982-08-30 03:00:00 TS 15.8573 -29.8427 main 1326 1326 P_____________ AL031982 15.8573 -29.8427 TS 50 998 0 15 282
1982241N14338 1982 63 NA NA BERYL 1982-08-30 06:00:00 TS 16.0000 -30.6000 50 998 hurdat_atl main 1412 1412 O_____________ hurdat_atl AL031982 16.0000 -30.6000 TS 50 998 0 15 281
1982241N14338 1982 63 NA NA BERYL 1982-08-30 09:00:00 TS 16.1422 -31.3502 main 1498 1498 P_____________ AL031982 16.1422 -31.3502 TS 50 997 0 15 282
1982241N14338 1982 63 NA NA BERYL 1982-08-30 12:00:00 TS 16.3000 -32.1000 50 996 hurdat_atl main 1574 1574 O_____________ hurdat_atl AL031982 16.3000 -32.1000 TS 50 996 0 15 284
1982241N14338 1982 63 NA NA BERYL 1982-08-30 15:00:00 TS 16.4998 -32.8575 main 1661 1661 P_____________ AL031982 16.4998 -32.8575 TS 52 995 0 15 286
1982241N14338 1982 63 NA NA BERYL 1982-08-30 18:00:00 TS 16.7000 -33.6000 55 995 hurdat_atl main 1738 1738 O_____________ hurdat_atl AL031982 16.7000 -33.6000 TS 55 995 0 14 285
1982241N14338 1982 63 NA NA BERYL 1982-08-30 21:00:00 TS 16.8647 -34.3076 main 1814 1814 P_____________ AL031982 16.8647 -34.3076 TS 55 994 0 14 283
1982241N14338 1982 63 NA NA BERYL 1982-08-31 00:00:00 TS 17.0000 -35.0000 55 993 hurdat_atl main 1889 1889 O_____________ hurdat_atl AL031982 17.0000 -35.0000 TS 55 993 0 14 279
1982241N14338 1982 63 NA NA BERYL 1982-08-31 03:00:00 TS 17.0848 -35.7004 main 1964 1964 P_____________ AL031982 17.0848 -35.7004 TS 57 992 0 14 278
1982241N14338 1982 63 NA NA BERYL 1982-08-31 06:00:00 TS 17.2000 -36.4000 60 992 hurdat_atl main 2039 2039 O_____________ hurdat_atl AL031982 17.2000 -36.4000 TS 60 992 0 14 285
1982241N14338 1982 63 NA NA BERYL 1982-08-31 09:00:00 TS 17.4424 -37.1147 main 2115 2101 P_____________ AL031982 17.4424 -37.1147 TS 60 991 0 14 291
1982241N14338 1982 63 NA NA BERYL 1982-08-31 12:00:00 TS 17.7000 -37.8000 60 991 hurdat_atl main 2101 2063 O_____________ hurdat_atl AL031982 17.7000 -37.8000 TS 60 991 0 13 289
1982241N14338 1982 63 NA NA BERYL 1982-08-31 15:00:00 TS 17.8648 -38.4302 main 2071 2036 P_____________ AL031982 17.8648 -38.4302 TS 60 990 0 12 285
1982241N14338 1982 63 NA NA BERYL 1982-08-31 18:00:00 TS 18.0000 -39.0000 60 990 hurdat_atl main 2036 2009 O_____________ hurdat_atl AL031982 18.0000 -39.0000 TS 60 990 0 11 285
1982241N14338 1982 63 NA NA BERYL 1982-08-31 21:00:00 TS 18.1498 -39.5226 main 2009 1992 P_____________ AL031982 18.1498 -39.5226 TS 60 989 0 10 288
1982241N14338 1982 63 NA NA BERYL 1982-09-01 00:00:00 TS 18.3000 -40.0000 60 989 hurdat_atl main 1992 1974 O_____________ hurdat_atl AL031982 18.3000 -40.0000 TS 60 989 0 9 289
1982241N14338 1982 63 NA NA BERYL 1982-09-01 03:00:00 TS 18.4574 -40.4650 main 1976 1960 P_____________ AL031982 18.4574 -40.4650 TS 60 993 0 9 289
1982241N14338 1982 63 NA NA BERYL 1982-09-01 06:00:00 TS 18.6000 -40.9000 60 998 hurdat_atl main 1960 1944 O_____________ hurdat_atl AL031982 18.6000 -40.9000 TS 60 998 0 8 287
1982241N14338 1982 63 NA NA BERYL 1982-09-01 09:00:00 TS 18.7074 -41.3151 main 1944 1928 P_____________ AL031982 18.7074 -41.3151 TS 60 998 0 8 285
1982241N14338 1982 63 NA NA BERYL 1982-09-01 12:00:00 TS 18.8000 -41.7000 60 998 hurdat_atl main 1928 1915 O_____________ hurdat_atl AL031982 18.8000 -41.7000 TS 60 998 0 7 285
1982241N14338 1982 63 NA NA BERYL 1982-09-01 15:00:00 TS 18.8998 -42.0501 main 1910 1900 P_____________ AL031982 18.8998 -42.0501 TS 60 994 0 7 287
1982241N14338 1982 63 NA NA BERYL 1982-09-01 18:00:00 TS 19.0000 -42.4000 60 990 hurdat_atl main 1900 1884 O_____________ hurdat_atl AL031982 19.0000 -42.4000 TS 60 990 0 7 286
1982241N14338 1982 63 NA NA BERYL 1982-09-01 21:00:00 TS 19.0999 -42.7851 main 1884 1869 P_____________ AL031982 19.0999 -42.7851 TS 57 992 0 8 285
1982241N14338 1982 63 NA NA BERYL 1982-09-02 00:00:00 TS 19.2000 -43.2000 55 994 hurdat_atl main 1869 1855 O_____________ hurdat_atl AL031982 19.2000 -43.2000 TS 55 994 0 8 283
1982241N14338 1982 63 NA NA BERYL 1982-09-02 03:00:00 TS 19.2924 -43.6351 main 1855 1837 P_____________ AL031982 19.2924 -43.6351 TS 50 997 0 9 283
1982241N14338 1982 63 NA NA BERYL 1982-09-02 06:00:00 TS 19.4000 -44.1000 45 1000 hurdat_atl main 1837 1820 O_____________ hurdat_atl AL031982 19.4000 -44.1000 TS 45 1000 0 9 286
1982241N14338 1982 63 NA NA BERYL 1982-09-02 09:00:00 TS 19.5499 -44.5850 main 1820 1815 P_____________ AL031982 19.5499 -44.5850 TS 40 1002 0 10 288
1982241N14338 1982 63 NA NA BERYL 1982-09-02 12:00:00 TS 19.7000 -45.1000 35 1005 hurdat_atl main 1815 1800 O_____________ hurdat_atl AL031982 19.7000 -45.1000 TS 35 1005 0 10 285
1982241N14338 1982 63 NA NA BERYL 1982-09-02 15:00:00 TS 19.8073 -45.6351 main 1800 1783 P_____________ AL031982 19.8073 -45.6351 TS 32 1006 -1 11 281
1982241N14338 1982 63 NA NA BERYL 1982-09-02 18:00:00 TS 19.9000 -46.2000 30 1008 hurdat_atl main 1783 1769 O_____________ hurdat_atl AL031982 19.9000 -46.2000 TD 30 1008 -1 11 281
1982241N14338 1982 63 NA NA BERYL 1982-09-02 21:00:00 TS 20.0149 -46.7924 main 1769 1751 P_____________ AL031982 20.0149 -46.7924 TD 30 1008 -1 11 280
1982241N14338 1982 63 NA NA BERYL 1982-09-03 00:00:00 TS 20.1000 -47.4000 30 1009 hurdat_atl main 1751 1725 O_____________ hurdat_atl AL031982 20.1000 -47.4000 TD 30 1009 -1 11 275
1982241N14338 1982 63 NA NA BERYL 1982-09-03 03:00:00 TS 20.1223 -48.0001 main 1725 1694 P_____________ AL031982 20.1223 -48.0001 TD 30 1009 -1 11 270
1982241N14338 1982 63 NA NA BERYL 1982-09-03 06:00:00 TS 20.1000 -48.6000 30 1009 hurdat_atl main 1694 1644 O_____________ hurdat_atl AL031982 20.1000 -48.6000 TD 30 1009 -1 11 266
1982241N14338 1982 63 NA NA BERYL 1982-09-03 09:00:00 TS 20.0498 -49.2001 main 1637 1588 P_____________ AL031982 20.0498 -49.2001 TD 30 1007 -1 11 265
1982241N14338 1982 63 NA NA BERYL 1982-09-03 12:00:00 TS 20.0000 -49.8000 30 1006 hurdat_atl main 1588 1540 O_____________ hurdat_atl AL031982 20.0000 -49.8000 TD 30 1006 -1 12 268
1982241N14338 1982 63 NA NA BERYL 1982-09-03 15:00:00 TS 20.0000 -50.4223 main 1540 1493 P_____________ AL031982 20.0000 -50.4223 TD 30 1006 -1 11 270
1982241N14338 1982 63 NA NA BERYL 1982-09-03 18:00:00 TS 20.0000 -51.0000 30 1006 hurdat_atl main 1493 1463 O_____________ hurdat_atl AL031982 20.0000 -51.0000 TD 30 1006 -1 10 267
1982241N14338 1982 63 NA NA BERYL 1982-09-03 21:00:00 TS 19.9496 -51.4651 main 1447 1418 P_____________ AL031982 19.9496 -51.4651 TD 30 1007 -1 9 263
1982241N14338 1982 63 NA NA BERYL 1982-09-04 00:00:00 TS 19.9000 -51.9000 30 1008 hurdat_atl main 1418 1381 O_____________ hurdat_atl AL031982 19.9000 -51.9000 TD 30 1008 -1 9 267
1982241N14338 1982 63 NA NA BERYL 1982-09-04 03:00:00 TS 19.9000 -52.3999 main 1381 1344 P_____________ AL031982 19.9000 -52.3999 TD 30 1008 -1 9 270
1982241N14338 1982 63 NA NA BERYL 1982-09-04 06:00:00 TS 19.9000 -52.9000 30 1009 hurdat_atl main 1344 1302 O_____________ hurdat_atl AL031982 19.9000 -52.9000 TD 30 1009 -1 9 267
1982241N14338 1982 63 NA NA BERYL 1982-09-04 09:00:00 TS 19.8572 -53.3425 main 1302 1249 P_____________ AL031982 19.8572 -53.3425 TD 30 1009 -1 9 263
1982241N14338 1982 63 NA NA BERYL 1982-09-04 12:00:00 TS 19.8000 -53.8000 30 1009 hurdat_atl main 1249 1197 O_____________ hurdat_atl AL031982 19.8000 -53.8000 TD 30 1009 -1 9 263
1982241N14338 1982 63 NA NA BERYL 1982-09-04 15:00:00 TS 19.7500 -54.3425 main 1197 1133 P_____________ AL031982 19.7500 -54.3425 TD 30 1009 -1 10 264
1982241N14338 1982 63 NA NA BERYL 1982-09-04 18:00:00 TS 19.7000 -54.9000 30 1009 hurdat_atl main 1133 1081 O_____________ hurdat_atl AL031982 19.7000 -54.9000 TD 30 1009 -1 10 265
1982241N14338 1982 63 NA NA BERYL 1982-09-04 21:00:00 TS 19.6572 -55.3999 main 1081 1028 P_____________ AL031982 19.6572 -55.3999 TD 30 1009 -1 9 264
1982241N14338 1982 63 NA NA BERYL 1982-09-05 00:00:00 TS 19.6000 -55.9000 30 1009 hurdat_atl main 1028 975 O_____________ hurdat_atl AL031982 19.6000 -55.9000 TD 30 1009 -1 10 260
1982241N14338 1982 63 NA NA BERYL 1982-09-05 03:00:00 TS 19.4923 -56.4277 main 975 911 P_____________ AL031982 19.4923 -56.4277 TD 27 1009 -1 11 259
1982241N14338 1982 63 NA NA BERYL 1982-09-05 06:00:00 TS 19.4000 -57.0000 25 1009 hurdat_atl main 911 848 O_____________ hurdat_atl AL031982 19.4000 -57.0000 TD 25 1009 -1 11 264
1982241N14338 1982 63 NA NA BERYL 1982-09-05 09:00:00 TS 19.3773 -57.6274 main 848 776 P_____________ AL031982 19.3773 -57.6274 TD 25 1009 -1 12 270
1982241N14338 1982 63 NA NA BERYL 1982-09-05 12:00:00 TS 19.4000 -58.3000 25 1010 hurdat_atl main 776 703 O_____________ hurdat_atl AL031982 19.4000 -58.3000 TD 25 1010 -1 13 273
1982241N14338 1982 63 NA NA BERYL 1982-09-05 15:00:00 TS 19.4349 -59.0000 main 703 632 P_____________ AL031982 19.4349 -59.0000 TD 27 1010 -1 13 274
1982241N14338 1982 63 NA NA BERYL 1982-09-05 18:00:00 TS 19.5000 -59.7000 30 1010 hurdat_atl main 632 573 O_____________ hurdat_atl AL031982 19.5000 -59.7000 TD 30 1010 -1 13 277
1982241N14338 1982 63 NA NA BERYL 1982-09-05 21:00:00 TS 19.5997 -60.3574 main 562 504 P_____________ AL031982 19.5997 -60.3574 TD 30 1010 -1 12 279
1982241N14338 1982 63 NA NA BERYL 1982-09-06 00:00:00 TS 19.7000 -61.0000 30 1010 hurdat_atl main 504 444 O_____________ hurdat_atl AL031982 19.7000 -61.0000 TD 30 1010 -1 12 277
1982241N14338 1982 63 NA NA BERYL 1982-09-06 03:00:00 TS 19.7498 -61.6502 main 434 380 P_____________ AL031982 19.7498 -61.6502 TD 30 1010 -1 12 275
1982241N14338 1982 63 NA NA BERYL 1982-09-06 06:00:00 TS 19.8000 -62.3000 30 1010 hurdat_atl main 380 329 O_____________ hurdat_atl AL031982 19.8000 -62.3000 TD 30 1010 -1 12 276
1982241N14338 1982 63 NA NA BERYL 1982-09-06 09:00:00 TS 19.8880 -62.9497 main 329 275 P_____________ AL031982 19.8880 -62.9497 TD 27 1010 -1 12 279
1982241N14338 1982 63 NA NA BERYL 1982-09-06 12:00:00 TS 20.0000 -63.6000 25 1010 hurdat_atl main 275 O_____________ hurdat_atl AL031982 20.0000 -63.6000 TD 25 1010 -1 12 280

IBTrACS Databaseについて

本データベースは、米国NOAAが公開する1842年以降の世界の熱帯低気圧のベストトラックデータアーカイブInternational Best Track Archive for Climate Stewardship (IBTrACS)を、ウェブで閲覧しやすい形式に変換したものです。

最終更新日:2021-10-08